Volkel, Nederland

7:43 AM CET op 13 februari 2016 (GMT +0100)
Uden-Zuid | | Change Station
CLOSE
Current Station
Persoonlijk weerstation
Location: Uden, NOORD-BRABANT
Geometrische hoogte: 52 ft
Nabije weerstations

Hoogte 52 ft 51.65 °N, 5.64 °E | Updated 24 seconds ago

Overcast
Geheel bewolkt
30.7 °F
Voelt als 31 °F
N
0.0
Wind Variabel Wind van NO
Gusts 1.1 mijl/u

Vandaag
Hoog -- | Laag -- °F
--% Kans op neerslag
Gisteren
Hoog -- | Laag -- °F
Precip. -- inches
Druk 29.33 inches
Zicht 6.2 mijlen
Wolken Geheel bewolkt 14000 ft
Gevoelstemperatuur 31 °F
Dauwpunt 28 °F
Vochtigheid 90%
Neerslag 0.00 inches
Dikte sneeuw Niet beschikbaar.
7:56 AM 5:47 PM
Wassende halvemaan, 27% visible
METAR EHVK 130625Z AUTO 09005KT 060V130 9999 OVC140 M02/M03 Q0993 BLU
Druk 29.33 inches
Zicht 6.2 mijlen
Wolken Geheel bewolkt 14000 ft
Gevoelstemperatuur 31 °F
Dauwpunt 28 °F
Vochtigheid 90%
Neerslag 0.00 inches
Dikte sneeuw Niet beschikbaar.
7:56 AM 5:47 PM
Wassende halvemaan, 27% visible
METAR EHVK 130625Z AUTO 09005KT 060V130 9999 OVC140 M02/M03 Q0993 BLU

10-Day Weather Forecast

Almanac

Astronomie

Feb. 13, 2016 Opkomst Ondergang
Werkelijke tijd
Burgerlijke schemering
Nautische schemering
Astronomische schemering
Maan
Golflengte van het zichtbare licht
Daglengte
Tomorrow will be .
, % of the Moon is Illuminated

Extremen vandaag

Country Highs Country Lows

Community

WunderPhotos

Upload Photos

1,892,519 foto’s ge-upload!

WunderBlog® & News

Nearby

Luchtkwaliteit

  Luchtkwaliteit LK-index Verontreinigende stof
Not available.

Dikte sneeuw

Station Depth Geometrische hoogte

Aardbevingen

Stad Distance Mag. Time & Date
Minimum magnitude displayed is 2.5.

Watertemperatuur langs de kust

Plaats Temperatuur

Stations

Nabije weerstations

Locatie station Temp. Gevoelstemperatuur Dauwpunt Vochtigheid Wind Precip. Hoogte Geactualiseerd Type